Friday, February 23, 2018, 2:51 PM EST
Back to Local

KPEO, Penn Yan Airport

Location: Penn Yan, NY, United States Lat: 42.65
Local Time: 2:51 PM EST (19:51 GMT) Lon: -77.05
Time Zone: US/Eastern Elev: 977 ft

Show me the last for .
Show Decoded

2018-02-23 14:12 METAR KPEO 231912Z AUTO 20015G27KT 10SM OVC015 04/00 A3016 RMK AO2 PK WND
                 19027/1907 T00390000 =
2018-02-23 13:53 METAR KPEO 231853Z AUTO 18013G24KT 10SM OVC014 04/00 A3017 RMK AO2 PRESFR SLP224
                 T00390000 =
2018-02-23 12:53 METAR KPEO 231753Z AUTO 18018G26KT 10SM OVC013 03/00 A3022 RMK AO2 PK WND
                 20027/1736 SLP243 60000 T00330000 10033 20011 56043 =
2018-02-23 12:28 METAR KPEO 231728Z AUTO 18012G24KT 10SM OVC014 03/00 A3023 RMK AO2 T00330000 =
2018-02-23 12:02 METAR KPEO 231702Z AUTO 18013G22KT 10SM OVC015 03/M01 A3025 RMK AO2 PRESFR
                 T00331006 =
2018-02-23 11:53 METAR KPEO 231653Z AUTO 19015G20KT 10SM OVC014 03/M01 A3026 RMK AO2 SLP257
                 T00331006 =
2018-02-23 11:39 METAR KPEO 231639Z AUTO 21006KT 10SM OVC014 03/M01 A3028 RMK AO2 T00331006 =
2018-02-23 10:53 METAR KPEO 231553Z AUTO 20016G22KT 10SM BKN016 BKN090 03/M01 A3029 RMK AO2
                 RAB31E40 SLP267 P0000 T00331006 =
2018-02-23 10:21 METAR KPEO 231521Z AUTO 18013G21KT 10SM OVC016 03/M01 A3032 RMK AO2 T00281006 =
2018-02-23 09:53 METAR KPEO 231453Z AUTO 18014G21KT 10SM OVC013 03/M01 A3035 RMK AO2 RAB36E49
                 SLP287 P0000 60000 T00281006 57039 =
2018-02-23 08:53 METAR KPEO 231353Z AUTO 17011KT 10SM OVC013 02/M01 A3039 RMK AO2 SLP301
                 T00221006 =
2018-02-23 07:53 METAR KPEO 231253Z AUTO 16012G19KT 10SM BKN010 BKN014 OVC032 02/M01 A3043 RMK
                 AO2 SLP315 T00171011 =
2018-02-23 07:09 METAR KPEO 231209Z AUTO 17009KT 9SM BKN010 BKN014 OVC027 01/M01 A3046 RMK AO2
                 T00111011 =
2018-02-23 06:53 METAR KPEO 231153Z AUTO 17007KT 10SM FEW014 OVC026 02/M01 A3047 RMK AO2 SLP328
                 70037 T00171011 10017 20000 56018 =
2018-02-23 05:53 METAR KPEO 231053Z AUTO VRB04KT 10SM OVC028 01/M01 A3048 RMK AO2 SLP333
                 T00111011 =
2018-02-23 05:41 METAR KPEO 231041Z AUTO 15004KT 5SM BR OVC028 01/M01 A3048 RMK AO2 T00061011 =
2018-02-23 05:30 METAR KPEO 231030Z AUTO 00000KT 2 1/2SM BR BKN028 OVC034 00/M01 A3048 RMK AO2
                 T00001011 =
2018-02-23 05:21 METAR KPEO 231021Z AUTO 00000KT 2SM BR OVC032 00/M01 A3048 RMK AO2 T00001011 =
2018-02-23 05:06 METAR KPEO 231006Z AUTO 00000KT 1 1/2SM BR FEW001 BKN026 OVC036 00/M02 A3049 RMK
                 AO2 T00001017 =
2018-02-23 04:53 METAR KPEO 230953Z AUTO 00000KT 2SM BR FEW001 BKN027 OVC045 00/M01 A3050 RMK AO2
                 SLP341 T00001011 =
2018-02-23 04:37 METAR KPEO 230937Z AUTO 00000KT 1 1/4SM BR FEW001 BKN029 OVC045 00/M01 A3050 RMK
                 AO2 T00001011 =
2018-02-23 04:23 METAR KPEO 230923Z AUTO 00000KT 1 1/2SM BR SCT001 BKN031 OVC085 00/M02 A3051 RMK
                 AO2 T00001017 =
2018-02-23 04:17 METAR KPEO 230917Z AUTO 00000KT 1 3/4SM BR BKN001 OVC032 00/M01 A3051 RMK AO2
                 T00001011 =
2018-02-23 03:53 METAR KPEO 230853Z AUTO 00000KT 2SM BR OVC002 00/M01 A3052 RMK AO2 SLP346
                 T00001011 58023 =
2018-02-23 02:53 METAR KPEO 230753Z AUTO 00000KT 2SM BR OVC002 00/M01 A3056 RMK AO2 SLP359
                 T00001011 =
2018-02-23 02:41 METAR KPEO 230741Z AUTO 00000KT 2SM BR OVC001 00/M01 A3057 RMK AO2 T00001011 =
2018-02-23 01:53 METAR KPEO 230653Z AUTO 00000KT 1 3/4SM BR OVC001 00/M02 A3058 RMK AO2 SLP368
                 T00001017 =
2018-02-23 01:37 METAR KPEO 230637Z AUTO 00000KT 1 3/4SM BR OVC001 00/M02 A3057 RMK AO2 T00001017
                 =
2018-02-23 01:17 METAR KPEO 230617Z AUTO 00000KT 2SM BR OVC002 00/M02 A3058 RMK AO2 T00001017 =
2018-02-23 01:09 METAR KPEO 230609Z AUTO 00000KT 1 3/4SM BR OVC002 00/M02 A3058 RMK AO2 T00001017
                 =
2018-02-23 01:02 METAR KPEO 230602Z AUTO 00000KT 2SM BR OVC002 00/M02 A3058 RMK AO2 T00001017 =
2018-02-23 00:53 METAR KPEO 230553Z AUTO 04003KT 2 1/2SM BR OVC002 00/M02 A3059 RMK AO2 SLP371
                 T00001017 10000 20000 56012 =
2018-02-23 00:49 METAR KPEO 230549Z AUTO 00000KT 2 1/2SM BR OVC002 00/M02 A3059 RMK AO2 =
2018-02-23 00:41 METAR KPEO 230541Z AUTO 00000KT 2SM BR OVC002 00/M01 A3060 RMK AO2 T00001011 =
2018-02-23 00:01 METAR KPEO 230501Z AUTO 00000KT 2 1/2SM BR OVC002 00/M02 A3061 RMK AO2 T00001017
                 =
2018-02-22 23:53 METAR KPEO 230453Z AUTO 00000KT 3SM BR OVC003 00/M01 A3061 RMK AO2 SLP379
                 T00001011 400171006 =
2018-02-22 23:42 METAR KPEO 230442Z AUTO 00000KT 3SM BR OVC003 00/M01 A3061 RMK AO2 T00001011 =
2018-02-22 23:20 METAR KPEO 230420Z AUTO 00000KT 2 1/2SM BR OVC003 00/M01 A3061 RMK AO2 T00001011
                 =
2018-02-22 22:53 METAR KPEO 230353Z AUTO 00000KT 3SM BR BKN003 OVC014 00/M01 A3062 RMK AO2 SLP383
                 T00001011 =
2018-02-22 21:53 METAR KPEO 230253Z AUTO 00000KT 3SM BR OVC001 00/M01 A3063 RMK AO2 SLP386
                 T00001011 56001 =
2018-02-22 21:32 METAR KPEO 230232Z AUTO 00000KT 2 1/2SM BR OVC002 00/M02 A3063 RMK AO2 T00001017
                 =
2018-02-22 20:53 METAR KPEO 230153Z AUTO 00000KT 4SM BR OVC003 00/M01 A3063 RMK AO2 SLP386
                 T00001011 =
2018-02-22 20:08 METAR KPEO 230108Z AUTO 00000KT 3SM BR OVC001 00/M01 A3063 RMK AO2 T00001011 =
2018-02-22 19:58 METAR KPEO 230058Z AUTO 00000KT 2 1/2SM BR OVC001 00/M01 A3063 RMK AO2 T00001011
                 =
2018-02-22 19:53 METAR KPEO 230053Z AUTO 00000KT 1 1/2SM BR OVC001 00/M01 A3063 RMK AO2 SLP385
                 T00001011 =
2018-02-22 19:15 METAR KPEO 230015Z AUTO VRB03KT 3/4SM BR VV001 00/M02 A3063 RMK AO2 T00001017
                 RVRNO =
2018-02-22 19:04 METAR KPEO 230004Z AUTO 02004KT 1 3/4SM BR OVC001 00/M02 A3063 RMK AO2 T00001017
                 =
2018-02-22 18:53 METAR KPEO 222353Z AUTO 00000KT 5SM BR OVC001 00/M02 A3064 RMK AO2 SLP387 60008
                 T00001017 10011 20000 53009 =
2018-02-22 17:53 METAR KPEO 222253Z AUTO 00000KT 5SM BR OVC002 00/M02 A3061 RMK AO2 SLP377
                 T00001017 =
2018-02-22 16:53 METAR KPEO 222153Z AUTO 00000KT 5SM BR OVC001 00/M02 A3059 RMK AO2 SLP372
                 T00001017 =
2018-02-22 16:43 METAR KPEO 222143Z AUTO VRB03KT 5SM BR OVC001 00/M02 A3059 RMK AO2 T00001017 =
2018-02-22 16:36 METAR KPEO 222136Z AUTO 00000KT 2SM BR OVC001 00/M02 A3059 RMK AO2 T00001017 =
2018-02-22 16:22 METAR KPEO 222122Z AUTO 00000KT 3/4SM BR OVC001 01/M01 A3060 RMK AO2 T00061011
                 RVRNO =
2018-02-22 16:18 METAR KPEO 222118Z AUTO 00000KT 2SM BR OVC002 01/M01 A3060 RMK AO2 T00061011 =
2018-02-22 15:53 METAR KPEO 222053Z AUTO 06003KT 5SM BR OVC003 01/M01 A3061 RMK AO2 SNE40 SLP377
                 P0000 60008 T00061011 58002 =
2018-02-22 15:22 METAR KPEO 222022Z AUTO 00000KT 3SM -SN BR OVC003 01/M01 A3062 RMK AO2 P0000
                 T00111006 =
2018-02-22 15:08 METAR KPEO 222008Z AUTO 00000KT 2 1/2SM -SN BR BKN003 OVC035 01/M01 A3062 RMK
                 AO2 P0000 T00061011 =
2018-02-22 14:53 METAR KPEO 221953Z AUTO 05003KT 1SM -SN BR OVC003 01/M01 A3063 RMK AO2 SLP383
                 P0002 T00061011 RVRNO =

Support USWX by starting your Amazon purchase here.